sensor_id;sensor_type;location;lat;lon;timestamp;pressure;altitude;pressure_sealevel;temperature;humidity
10881;BME280;5493;48.884;8.338;2022-12-24T00:02:20;99757.91;;;14.48;100.00
10881;BME280;5493;48.884;8.338;2022-12-24T00:04:46;99756.25;;;14.42;100.00
10881;BME280;5493;48.884;8.338;2022-12-24T00:07:13;99757.44;;;14.29;100.00
10881;BME280;5493;48.884;8.338;2022-12-24T00:09:39;99755.34;;;14.36;100.00
10881;BME280;5493;48.884;8.338;2022-12-24T00:12:06;99748.78;;;14.59;100.00
10881;BME280;5493;48.884;8.338;2022-12-24T00:14:34;99752.91;;;14.35;100.00
10881;BME280;5493;48.884;8.338;2022-12-24T00:17:00;99759.78;;;14.42;100.00
10881;BME280;5493;48.884;8.338;2022-12-24T00:19:27;99753.28;;;14.43;100.00
10881;BME280;5493;48.884;8.338;2022-12-24T00:21:53;99750.59;;;14.48;100.00
10881;BME280;5493;48.884;8.338;2022-12-24T00:24:20;99760.56;;;14.16;100.00
10881;BME280;5493;48.884;8.338;2022-12-24T00:26:46;99763.88;;;14.23;100.00
10881;BME280;5493;48.884;8.338;2022-12-24T00:29:13;99806.09;;;14.14;100.00
10881;BME280;5493;48.884;8.338;2022-12-24T00:31:41;99800.72;;;13.92;100.00
10881;BME280;5493;48.884;8.338;2022-12-24T00:34:07;99792.50;;;13.87;100.00
10881;BME280;5493;48.884;8.338;2022-12-24T00:36:33;99792.94;;;13.57;100.00
10881;BME280;5493;48.884;8.338;2022-12-24T00:39:00;99798.75;;;13.88;100.00
10881;BME280;5493;48.884;8.338;2022-12-24T00:41:26;99813.00;;;13.78;100.00
10881;BME280;5493;48.884;8.338;2022-12-24T00:43:55;99827.09;;;13.58;100.00
10881;BME280;5493;48.884;8.338;2022-12-24T00:46:22;99877.66;;;13.36;100.00
10881;BME280;5493;48.884;8.338;2022-12-24T00:48:50;99876.78;;;13.14;100.00
10881;BME280;5493;48.884;8.338;2022-12-24T00:51:18;99879.84;;;12.89;100.00
10881;BME280;5493;48.884;8.338;2022-12-24T00:53:44;99888.56;;;12.91;100.00
10881;BME280;5493;48.884;8.338;2022-12-24T00:56:11;99896.09;;;12.89;100.00
10881;BME280;5493;48.884;8.338;2022-12-24T00:58:38;99890.72;;;12.77;100.00
10881;BME280;5493;48.884;8.338;2022-12-24T01:01:04;99900.53;;;12.67;100.00
10881;BME280;5493;48.884;8.338;2022-12-24T01:03:31;99909.97;;;12.64;100.00
10881;BME280;5493;48.884;8.338;2022-12-24T01:06:04;99899.00;;;12.71;100.00
10881;BME280;5493;48.884;8.338;2022-12-24T01:08:30;99903.75;;;12.64;100.00
10881;BME280;5493;48.884;8.338;2022-12-24T01:10:57;99902.03;;;12.74;100.00
10881;BME280;5493;48.884;8.338;2022-12-24T01:13:24;99905.09;;;12.50;100.00
10881;BME280;5493;48.884;8.338;2022-12-24T01:15:50;99923.50;;;12.64;100.00
10881;BME280;5493;48.884;8.338;2022-12-24T01:18:17;99918.75;;;12.71;100.00
10881;BME280;5493;48.884;8.338;2022-12-24T01:20:43;99905.28;;;12.60;100.00
10881;BME280;5493;48.884;8.338;2022-12-24T01:23:11;99903.34;;;12.72;100.00
10881;BME280;5493;48.884;8.338;2022-12-24T01:25:38;99919.97;;;12.64;100.00
10881;BME280;5493;48.884;8.338;2022-12-24T01:28:04;99923.66;;;12.58;100.00
10881;BME280;5493;48.884;8.338;2022-12-24T01:30:31;99929.31;;;12.45;100.00
10881;BME280;5493;48.884;8.338;2022-12-24T01:32:57;99935.19;;;12.53;100.00
10881;BME280;5493;48.884;8.338;2022-12-24T01:35:24;99950.09;;;12.56;100.00
10881;BME280;5493;48.884;8.338;2022-12-24T01:37:50;99957.47;;;12.72;100.00
10881;BME280;5493;48.884;8.338;2022-12-24T01:40:18;99953.09;;;12.71;100.00
10881;BME280;5493;48.884;8.338;2022-12-24T01:43:11;99958.22;;;12.56;100.00
10881;BME280;5493;48.884;8.338;2022-12-24T01:45:53;99957.69;;;12.70;100.00
10881;BME280;5493;48.884;8.338;2022-12-24T01:48:33;99968.19;;;12.55;100.00
10881;BME280;5493;48.884;8.338;2022-12-24T01:51:06;99976.44;;;12.60;100.00
10881;BME280;5493;48.884;8.338;2022-12-24T01:53:36;99972.06;;;12.59;100.00
10881;BME280;5493;48.884;8.338;2022-12-24T01:56:05;99974.44;;;12.56;100.00
10881;BME280;5493;48.884;8.338;2022-12-24T01:58:33;99963.78;;;12.38;100.00
10881;BME280;5493;48.884;8.338;2022-12-24T02:01:02;99959.75;;;12.52;100.00
10881;BME280;5493;48.884;8.338;2022-12-24T02:03:29;99956.50;;;12.38;100.00
10881;BME280;5493;48.884;8.338;2022-12-24T02:05:57;99959.28;;;12.55;100.00
10881;BME280;5493;48.884;8.338;2022-12-24T02:08:24;99951.91;;;12.50;100.00
10881;BME280;5493;48.884;8.338;2022-12-24T02:11:09;99958.81;;;12.58;100.00
10881;BME280;5493;48.884;8.338;2022-12-24T02:13:36;99958.13;;;12.51;100.00
10881;BME280;5493;48.884;8.338;2022-12-24T02:16:09;99961.59;;;12.63;100.00
10881;BME280;5493;48.884;8.338;2022-12-24T02:18:45;99956.66;;;12.60;100.00
10881;BME280;5493;48.884;8.338;2022-12-24T02:21:29;99950.06;;;12.67;100.00
10881;BME280;5493;48.884;8.338;2022-12-24T02:27:21;99943.97;;;12.60;100.00
10881;BME280;5493;48.884;8.338;2022-12-24T02:30:01;99950.31;;;12.66;100.00
10881;BME280;5493;48.884;8.338;2022-12-24T02:32:34;99963.09;;;12.70;100.00
10881;BME280;5493;48.884;8.338;2022-12-24T02:35:05;99958.44;;;12.66;100.00
10881;BME280;5493;48.884;8.338;2022-12-24T02:37:36;99953.97;;;12.60;100.00
10881;BME280;5493;48.884;8.338;2022-12-24T02:40:07;99960.41;;;12.70;100.00
10881;BME280;5493;48.884;8.338;2022-12-24T02:42:38;99958.28;;;12.72;100.00
10881;BME280;5493;48.884;8.338;2022-12-24T02:45:08;99945.91;;;12.76;100.00
10881;BME280;5493;48.884;8.338;2022-12-24T02:47:37;99949.56;;;12.70;100.00
10881;BME280;5493;48.884;8.338;2022-12-24T02:50:07;99952.03;;;12.72;100.00
10881;BME280;5493;48.884;8.338;2022-12-24T02:52:36;99944.50;;;12.74;100.00
10881;BME280;5493;48.884;8.338;2022-12-24T02:55:07;99940.69;;;12.87;100.00
10881;BME280;5493;48.884;8.338;2022-12-24T02:57:55;99951.84;;;12.90;100.00
10881;BME280;5493;48.884;8.338;2022-12-24T03:00:34;99959.31;;;13.00;100.00
10881;BME280;5493;48.884;8.338;2022-12-24T03:03:19;99950.53;;;12.93;100.00
10881;BME280;5493;48.884;8.338;2022-12-24T03:05:51;99950.97;;;13.01;100.00
10881;BME280;5493;48.884;8.338;2022-12-24T03:08:27;99963.25;;;12.92;100.00
10881;BME280;5493;48.884;8.338;2022-12-24T03:11:01;99971.13;;;12.94;100.00
10881;BME280;5493;48.884;8.338;2022-12-24T03:13:30;99974.59;;;13.06;100.00
10881;BME280;5493;48.884;8.338;2022-12-24T03:15:58;99968.94;;;13.07;100.00
10881;BME280;5493;48.884;8.338;2022-12-24T03:18:26;99966.38;;;13.01;100.00
10881;BME280;5493;48.884;8.338;2022-12-24T03:20:56;99963.16;;;13.15;100.00
10881;BME280;5493;48.884;8.338;2022-12-24T03:23:24;99963.38;;;13.14;100.00
10881;BME280;5493;48.884;8.338;2022-12-24T03:25:51;99963.00;;;13.22;100.00
10881;BME280;5493;48.884;8.338;2022-12-24T03:28:18;99972.25;;;13.09;100.00
10881;BME280;5493;48.884;8.338;2022-12-24T03:30:49;99984.94;;;13.09;100.00
10881;BME280;5493;48.884;8.338;2022-12-24T03:33:17;99988.25;;;13.11;100.00
10881;BME280;5493;48.884;8.338;2022-12-24T03:35:44;99983.69;;;13.00;100.00
10881;BME280;5493;48.884;8.338;2022-12-24T03:38:11;99989.53;;;13.08;100.00
10881;BME280;5493;48.884;8.338;2022-12-24T03:40:37;99980.25;;;13.04;100.00
10881;BME280;5493;48.884;8.338;2022-12-24T03:43:04;99976.88;;;12.97;100.00
10881;BME280;5493;48.884;8.338;2022-12-24T03:45:30;99983.19;;;13.03;100.00
10881;BME280;5493;48.884;8.338;2022-12-24T03:47:56;99996.03;;;12.67;100.00
10881;BME280;5493;48.884;8.338;2022-12-24T03:50:24;100004.31;;;12.61;100.00
10881;BME280;5493;48.884;8.338;2022-12-24T03:52:51;99996.03;;;12.67;100.00
10881;BME280;5493;48.884;8.338;2022-12-24T03:55:17;99997.38;;;12.53;100.00
10881;BME280;5493;48.884;8.338;2022-12-24T03:57:44;99995.00;;;12.68;100.00
10881;BME280;5493;48.884;8.338;2022-12-24T04:00:11;99996.03;;;12.67;100.00
10881;BME280;5493;48.884;8.338;2022-12-24T04:02:38;100009.34;;;12.69;100.00
10881;BME280;5493;48.884;8.338;2022-12-24T04:05:06;100001.13;;;12.52;100.00
10881;BME280;5493;48.884;8.338;2022-12-24T04:07:34;100006.41;;;12.59;100.00
10881;BME280;5493;48.884;8.338;2022-12-24T04:10:00;100009.38;;;12.46;100.00
10881;BME280;5493;48.884;8.338;2022-12-24T04:12:27;100014.22;;;12.44;100.00
10881;BME280;5493;48.884;8.338;2022-12-24T04:14:53;100014.16;;;12.67;100.00
10881;BME280;5493;48.884;8.338;2022-12-24T04:17:20;100025.81;;;12.56;100.00
10881;BME280;5493;48.884;8.338;2022-12-24T04:19:46;100015.75;;;12.51;100.00
10881;BME280;5493;48.884;8.338;2022-12-24T04:22:13;100024.75;;;12.57;100.00
10881;BME280;5493;48.884;8.338;2022-12-24T04:24:40;100020.91;;;12.53;100.00
10881;BME280;5493;48.884;8.338;2022-12-24T04:27:07;100022.88;;;12.57;100.00
10881;BME280;5493;48.884;8.338;2022-12-24T04:29:33;100035.22;;;12.65;100.00
10881;BME280;5493;48.884;8.338;2022-12-24T04:32:00;100045.41;;;12.74;100.00
10881;BME280;5493;48.884;8.338;2022-12-24T04:34:27;100026.50;;;12.63;100.00
10881;BME280;5493;48.884;8.338;2022-12-24T04:36:53;100027.44;;;12.68;100.00
10881;BME280;5493;48.884;8.338;2022-12-24T04:39:19;100019.28;;;12.40;100.00
10881;BME280;5493;48.884;8.338;2022-12-24T04:41:47;100024.75;;;12.57;100.00
10881;BME280;5493;48.884;8.338;2022-12-24T04:44:14;100037.47;;;12.56;100.00
10881;BME280;5493;48.884;8.338;2022-12-24T04:46:40;100046.38;;;12.68;100.00
10881;BME280;5493;48.884;8.338;2022-12-24T04:49:07;100047.97;;;12.81;100.00
10881;BME280;5493;48.884;8.338;2022-12-24T04:51:34;100059.16;;;12.84;100.00
10881;BME280;5493;48.884;8.338;2022-12-24T04:54:00;100058.72;;;12.76;100.00
10881;BME280;5493;48.884;8.338;2022-12-24T04:56:29;100056.25;;;12.74;100.00
10881;BME280;5493;48.884;8.338;2022-12-24T04:58:58;100052.22;;;12.77;100.00
10881;BME280;5493;48.884;8.338;2022-12-24T05:01:27;100051.53;;;12.70;100.00
10881;BME280;5493;48.884;8.338;2022-12-24T05:03:54;100054.25;;;12.70;100.00
10881;BME280;5493;48.884;8.338;2022-12-24T05:06:22;100050.13;;;12.67;100.00
10881;BME280;5493;48.884;8.338;2022-12-24T05:08:49;100041.31;;;12.72;100.00
10881;BME280;5493;48.884;8.338;2022-12-24T05:11:16;100040.97;;;12.68;100.00
10881;BME280;5493;48.884;8.338;2022-12-24T05:13:43;100035.53;;;12.80;100.00
10881;BME280;5493;48.884;8.338;2022-12-24T05:16:12;100041.75;;;12.80;100.00
10881;BME280;5493;48.884;8.338;2022-12-24T05:18:39;100040.94;;;12.80;100.00
10881;BME280;5493;48.884;8.338;2022-12-24T05:21:07;100036.81;;;12.77;100.00
10881;BME280;5493;48.884;8.338;2022-12-24T05:23:34;100027.19;;;12.70;100.00
10881;BME280;5493;48.884;8.338;2022-12-24T05:26:23;100020.66;;;12.66;100.00
10881;BME280;5493;48.884;8.338;2022-12-24T05:28:53;100039.66;;;12.71;100.00
10881;BME280;5493;48.884;8.338;2022-12-24T05:31:23;100024.47;;;12.70;100.00
10881;BME280;5493;48.884;8.338;2022-12-24T05:33:50;100029.25;;;12.91;100.00
10881;BME280;5493;48.884;8.338;2022-12-24T05:36:18;100030.56;;;12.77;100.00
10881;BME280;5493;48.884;8.338;2022-12-24T05:38:45;100039.22;;;12.62;100.00
10881;BME280;5493;48.884;8.338;2022-12-24T05:41:11;100043.50;;;12.87;100.00
10881;BME280;5493;48.884;8.338;2022-12-24T05:43:38;100033.09;;;12.67;100.00
10881;BME280;5493;48.884;8.338;2022-12-24T05:46:06;100039.25;;;12.91;100.00
10881;BME280;5493;48.884;8.338;2022-12-24T05:48:35;100037.75;;;12.83;100.00
10881;BME280;5493;48.884;8.338;2022-12-24T05:51:03;100034.50;;;12.69;100.00
10881;BME280;5493;48.884;8.338;2022-12-24T05:53:30;100034.94;;;12.78;100.00
10881;BME280;5493;48.884;8.338;2022-12-24T05:56:02;100051.31;;;12.71;100.00
10881;BME280;5493;48.884;8.338;2022-12-24T05:58:29;100058.91;;;12.86;100.00
10881;BME280;5493;48.884;8.338;2022-12-24T06:00:55;100063.28;;;12.87;100.00
10881;BME280;5493;48.884;8.338;2022-12-24T06:03:22;100048.81;;;12.81;100.00
10881;BME280;5493;48.884;8.338;2022-12-24T06:05:58;100053.03;;;12.77;100.00
10881;BME280;5493;48.884;8.338;2022-12-24T06:08:25;100056.09;;;12.81;100.00
10881;BME280;5493;48.884;8.338;2022-12-24T06:10:54;100063.38;;;12.80;100.00
10881;BME280;5493;48.884;8.338;2022-12-24T06:13:21;100065.66;;;12.72;100.00
10881;BME280;5493;48.884;8.338;2022-12-24T06:15:47;100067.47;;;12.55;100.00
10881;BME280;5493;48.884;8.338;2022-12-24T06:18:14;100063.09;;;12.65;100.00
10881;BME280;5493;48.884;8.338;2022-12-24T06:20:40;100090.63;;;12.62;100.00
10881;BME280;5493;48.884;8.338;2022-12-24T06:23:08;100089.41;;;12.70;100.00
10881;BME280;5493;48.884;8.338;2022-12-24T06:25:35;100086.25;;;12.61;100.00
10881;BME280;5493;48.884;8.338;2022-12-24T06:28:01;100086.13;;;12.56;100.00
10881;BME280;5493;48.884;8.338;2022-12-24T06:30:27;100082.94;;;12.82;100.00
10881;BME280;5493;48.884;8.338;2022-12-24T06:32:54;100092.72;;;12.72;100.00
10881;BME280;5493;48.884;8.338;2022-12-24T06:35:20;100094.06;;;12.98;100.00
10881;BME280;5493;48.884;8.338;2022-12-24T06:37:47;100096.16;;;12.96;100.00
10881;BME280;5493;48.884;8.338;2022-12-24T06:40:15;100093.59;;;12.89;100.00
10881;BME280;5493;48.884;8.338;2022-12-24T06:42:41;100104.88;;;12.98;100.00
10881;BME280;5493;48.884;8.338;2022-12-24T06:45:09;100113.34;;;13.13;100.00
10881;BME280;5493;48.884;8.338;2022-12-24T06:47:35;100114.63;;;12.99;100.00
10881;BME280;5493;48.884;8.338;2022-12-24T06:50:02;100119.59;;;13.02;100.00
10881;BME280;5493;48.884;8.338;2022-12-24T06:52:29;100123.34;;;13.01;100.00
10881;BME280;5493;48.884;8.338;2022-12-24T06:54:55;100115.13;;;12.96;100.00
10881;BME280;5493;48.884;8.338;2022-12-24T06:57:23;100120.88;;;12.99;100.00
10881;BME280;5493;48.884;8.338;2022-12-24T06:59:49;100114.34;;;12.83;100.00
10881;BME280;5493;48.884;8.338;2022-12-24T07:02:16;100139.53;;;12.84;100.00
10881;BME280;5493;48.884;8.338;2022-12-24T07:04:42;100133.50;;;12.82;100.00
10881;BME280;5493;48.884;8.338;2022-12-24T07:07:09;100145.38;;;12.81;100.00
10881;BME280;5493;48.884;8.338;2022-12-24T07:09:36;100144.75;;;13.02;100.00
10881;BME280;5493;48.884;8.338;2022-12-24T07:12:03;100152.19;;;12.95;100.00
10881;BME280;5493;48.884;8.338;2022-12-24T07:14:31;100152.31;;;12.89;100.00
10881;BME280;5493;48.884;8.338;2022-12-24T07:16:58;100162.66;;;12.92;100.00
10881;BME280;5493;48.884;8.338;2022-12-24T07:19:24;100163.13;;;13.12;100.00
10881;BME280;5493;48.884;8.338;2022-12-24T07:21:51;100153.59;;;12.98;100.00
10881;BME280;5493;48.884;8.338;2022-12-24T07:24:17;100153.59;;;12.98;100.00
10881;BME280;5493;48.884;8.338;2022-12-24T07:26:44;100162.53;;;13.10;100.00
10881;BME280;5493;48.884;8.338;2022-12-24T07:29:10;100165.13;;;12.93;100.00
10881;BME280;5493;48.884;8.338;2022-12-24T07:31:38;100160.69;;;12.87;100.00
10881;BME280;5493;48.884;8.338;2022-12-24T07:34:05;100154.28;;;13.05;100.00
10881;BME280;5493;48.884;8.338;2022-12-24T07:36:31;100159.94;;;13.15;100.00
10881;BME280;5493;48.884;8.338;2022-12-24T07:38:58;100157.34;;;13.08;100.00
10881;BME280;5493;48.884;8.338;2022-12-24T07:41:24;100159.09;;;13.03;100.00
10881;BME280;5493;48.884;8.338;2022-12-24T07:43:51;100168.66;;;13.05;100.00
10881;BME280;5493;48.884;8.338;2022-12-24T07:46:17;100174.22;;;12.87;100.00
10881;BME280;5493;48.884;8.338;2022-12-24T07:48:45;100168.31;;;12.90;100.00
10881;BME280;5493;48.884;8.338;2022-12-24T07:51:11;100161.84;;;12.91;100.00
10881;BME280;5493;48.884;8.338;2022-12-24T07:53:38;100163.88;;;12.72;100.00
10881;BME280;5493;48.884;8.338;2022-12-24T07:56:11;100160.22;;;12.78;100.00
10881;BME280;5493;48.884;8.338;2022-12-24T07:58:37;100165.00;;;13.00;100.00
10881;BME280;5493;48.884;8.338;2022-12-24T08:01:04;100175.50;;;12.84;100.00
10881;BME280;5493;48.884;8.338;2022-12-24T08:03:31;100180.69;;;12.74;100.00
10881;BME280;5493;48.884;8.338;2022-12-24T08:05:59;100179.84;;;12.86;100.00
10881;BME280;5493;48.884;8.338;2022-12-24T08:08:25;100182.69;;;12.79;100.00
10881;BME280;5493;48.884;8.338;2022-12-24T08:10:52;100170.78;;;12.92;100.00
10881;BME280;5493;48.884;8.338;2022-12-24T08:13:19;100177.50;;;12.77;100.00
10881;BME280;5493;48.884;8.338;2022-12-24T08:15:45;100188.09;;;12.91;100.00
10881;BME280;5493;48.884;8.338;2022-12-24T08:18:12;100174.31;;;12.92;100.00
10881;BME280;5493;48.884;8.338;2022-12-24T08:20:39;100178.44;;;12.95;100.00
10881;BME280;5493;48.884;8.338;2022-12-24T08:23:07;100178.88;;;12.92;100.00
10881;BME280;5493;48.884;8.338;2022-12-24T08:25:34;100177.25;;;13.14;100.00
10881;BME280;5493;48.884;8.338;2022-12-24T08:28:01;100180.19;;;13.01;100.00
10881;BME280;5493;48.884;8.338;2022-12-24T08:30:28;100185.81;;;13.22;100.00
10881;BME280;5493;48.884;8.338;2022-12-24T08:32:54;100182.44;;;13.15;100.00
10881;BME280;5493;48.884;8.338;2022-12-24T08:35:21;100177.09;;;13.20;100.00
10881;BME280;5493;48.884;8.338;2022-12-24T08:37:47;100185.13;;;13.15;100.00
10881;BME280;5493;48.884;8.338;2022-12-24T08:40:15;100192.63;;;13.25;100.00
10881;BME280;5493;48.884;8.338;2022-12-24T08:42:42;100199.09;;;13.24;100.00
10881;BME280;5493;48.884;8.338;2022-12-24T08:45:09;100187.34;;;13.30;100.00
10881;BME280;5493;48.884;8.338;2022-12-24T08:47:36;100195.47;;;13.30;100.00
10881;BME280;5493;48.884;8.338;2022-12-24T08:50:03;100193.81;;;13.17;100.00
10881;BME280;5493;48.884;8.338;2022-12-24T08:52:30;100195.81;;;13.22;100.00
10881;BME280;5493;48.884;8.338;2022-12-24T08:54:57;100202.75;;;13.06;100.00
10881;BME280;5493;48.884;8.338;2022-12-24T08:57:25;100205.47;;;13.06;100.00
10881;BME280;5493;48.884;8.338;2022-12-24T08:59:51;100202.44;;;13.14;100.00
10881;BME280;5493;48.884;8.338;2022-12-24T09:02:18;100201.47;;;13.09;100.00
10881;BME280;5493;48.884;8.338;2022-12-24T09:04:44;100213.00;;;13.04;100.00
10881;BME280;5493;48.884;8.338;2022-12-24T09:07:11;100216.78;;;13.03;100.00
10881;BME280;5493;48.884;8.338;2022-12-24T09:09:37;100208.09;;;13.13;100.00
10881;BME280;5493;48.884;8.338;2022-12-24T09:12:05;100209.38;;;13.10;100.00
10881;BME280;5493;48.884;8.338;2022-12-24T09:14:33;100211.72;;;13.07;100.00
10881;BME280;5493;48.884;8.338;2022-12-24T09:17:00;100223.38;;;13.19;100.00
10881;BME280;5493;48.884;8.338;2022-12-24T09:19:27;100235.75;;;13.15;100.00
10881;BME280;5493;48.884;8.338;2022-12-24T09:21:53;100246.66;;;13.31;100.00
10881;BME280;5493;48.884;8.338;2022-12-24T09:24:20;100255.88;;;13.19;100.00
10881;BME280;5493;48.884;8.338;2022-12-24T09:26:47;100269.50;;;13.24;100.00
10881;BME280;5493;48.884;8.338;2022-12-24T09:29:14;100272.22;;;13.01;100.00
10881;BME280;5493;48.884;8.338;2022-12-24T09:31:42;100275.16;;;13.11;100.00
10881;BME280;5493;48.884;8.338;2022-12-24T09:34:09;100278.66;;;13.00;100.00
10881;BME280;5493;48.884;8.338;2022-12-24T09:36:35;100285.03;;;12.94;100.00
10881;BME280;5493;48.884;8.338;2022-12-24T09:39:02;100268.44;;;12.90;100.00
10881;BME280;5493;48.884;8.338;2022-12-24T09:41:40;100276.00;;;13.11;100.00
10881;BME280;5493;48.884;8.338;2022-12-24T09:44:20;100287.28;;;13.08;100.00
10881;BME280;5493;48.884;8.338;2022-12-24T09:46:50;100295.03;;;13.05;100.00
10881;BME280;5493;48.884;8.338;2022-12-24T09:49:20;100299.28;;;13.01;100.00
10881;BME280;5493;48.884;8.338;2022-12-24T09:51:50;100298.91;;;12.97;100.00
10881;BME280;5493;48.884;8.338;2022-12-24T09:54:20;100301.75;;;12.91;100.00
10881;BME280;5493;48.884;8.338;2022-12-24T09:56:49;100299.63;;;13.04;100.00
10881;BME280;5493;48.884;8.338;2022-12-24T09:59:18;100302.03;;;13.12;100.00
10881;BME280;5493;48.884;8.338;2022-12-24T10:01:49;100301.63;;;13.20;100.00
10881;BME280;5493;48.884;8.338;2022-12-24T10:04:18;100299.31;;;13.12;100.00
10881;BME280;5493;48.884;8.338;2022-12-24T10:06:51;100316.97;;;13.26;100.00
10881;BME280;5493;48.884;8.338;2022-12-24T10:09:24;100317.31;;;13.18;100.00
10881;BME280;5493;48.884;8.338;2022-12-24T10:11:59;100318.97;;;13.19;100.00
10881;BME280;5493;48.884;8.338;2022-12-24T10:14:39;100325.09;;;13.26;100.00
10881;BME280;5493;48.884;8.338;2022-12-24T10:17:24;100323.31;;;13.20;100.00
10881;BME280;5493;48.884;8.338;2022-12-24T10:20:00;100326.56;;;12.99;100.00
10881;BME280;5493;48.884;8.338;2022-12-24T10:22:35;100324.34;;;13.08;100.00
10881;BME280;5493;48.884;8.338;2022-12-24T10:25:13;100308.94;;;13.08;100.00
10881;BME280;5493;48.884;8.338;2022-12-24T10:27:44;100305.03;;;13.04;100.00
10881;BME280;5493;48.884;8.338;2022-12-24T10:30:13;100315.91;;;13.27;100.00
10881;BME280;5493;48.884;8.338;2022-12-24T10:32:41;100315.19;;;13.32;100.00
10881;BME280;5493;48.884;8.338;2022-12-24T10:35:19;100312.25;;;13.45;100.00
10881;BME280;5493;48.884;8.338;2022-12-24T10:37:48;100320.69;;;13.60;100.00
10881;BME280;5493;48.884;8.338;2022-12-24T10:40:24;100316.69;;;13.63;100.00
10881;BME280;5493;48.884;8.338;2022-12-24T10:42:52;100321.81;;;13.76;100.00
10881;BME280;5493;48.884;8.338;2022-12-24T10:45:21;100318.28;;;13.87;100.00
10881;BME280;5493;48.884;8.338;2022-12-24T10:47:57;100310.00;;;13.94;100.00
10881;BME280;5493;48.884;8.338;2022-12-24T10:50:30;100299.44;;;13.80;100.00
10881;BME280;5493;48.884;8.338;2022-12-24T10:53:03;100311.50;;;14.01;100.00
10881;BME280;5493;48.884;8.338;2022-12-24T10:55:32;100314.03;;;13.79;100.00
10881;BME280;5493;48.884;8.338;2022-12-24T10:58:00;100330.41;;;13.85;100.00
10881;BME280;5493;48.884;8.338;2022-12-24T11:00:27;100327.38;;;13.81;100.00
10881;BME280;5493;48.884;8.338;2022-12-24T11:03:14;100322.31;;;13.61;100.00
10881;BME280;5493;48.884;8.338;2022-12-24T11:05:45;100321.38;;;13.67;100.00
10881;BME280;5493;48.884;8.338;2022-12-24T11:08:15;100318.00;;;13.37;100.00
10881;BME280;5493;48.884;8.338;2022-12-24T11:10:53;100322.25;;;13.45;100.00
10881;BME280;5493;48.884;8.338;2022-12-24T11:13:23;100321.41;;;13.44;100.00
10881;BME280;5493;48.884;8.338;2022-12-24T11:15:59;100319.88;;;13.60;100.00
10881;BME280;5493;48.884;8.338;2022-12-24T11:18:28;100319.88;;;13.60;100.00
10881;BME280;5493;48.884;8.338;2022-12-24T11:20:56;100319.53;;;13.45;100.00
10881;BME280;5493;48.884;8.338;2022-12-24T11:23:25;100322.13;;;13.40;100.00
10881;BME280;5493;48.884;8.338;2022-12-24T11:25:53;100320.50;;;13.27;100.00
10881;BME280;5493;48.884;8.338;2022-12-24T11:28:23;100317.88;;;13.32;100.00
10881;BME280;5493;48.884;8.338;2022-12-24T11:30:59;100310.03;;;13.30;100.00
10881;BME280;5493;48.884;8.338;2022-12-24T11:33:29;100308.72;;;13.45;100.00
10881;BME280;5493;48.884;8.338;2022-12-24T11:36:03;100305.19;;;13.21;100.00
10881;BME280;5493;48.884;8.338;2022-12-24T11:38:33;100313.66;;;13.24;100.00
10881;BME280;5493;48.884;8.338;2022-12-24T11:41:05;100294.56;;;13.43;100.00
10881;BME280;5493;48.884;8.338;2022-12-24T11:43:39;100292.13;;;13.18;100.00
10881;BME280;5493;48.884;8.338;2022-12-24T11:46:17;100256.56;;;13.14;100.00
10881;BME280;5493;48.884;8.338;2022-12-24T11:48:46;100273.72;;;13.31;100.00
10881;BME280;5493;48.884;8.338;2022-12-24T11:51:21;100267.41;;;12.91;100.00
10881;BME280;5493;48.884;8.338;2022-12-24T11:53:50;100273.13;;;13.06;100.00
10881;BME280;5493;48.884;8.338;2022-12-24T11:56:31;100277.06;;;13.10;100.00
10881;BME280;5493;48.884;8.338;2022-12-24T11:59:02;100269.97;;;12.98;100.00
10881;BME280;5493;48.884;8.338;2022-12-24T12:01:36;100272.44;;;12.99;100.00
10881;BME280;5493;48.884;8.338;2022-12-24T12:04:12;100283.06;;;13.12;100.00
10881;BME280;5493;48.884;8.338;2022-12-24T12:06:43;100274.56;;;12.97;100.00
10881;BME280;5493;48.884;8.338;2022-12-24T12:09:14;100266.31;;;12.69;100.00
10881;BME280;5493;48.884;8.338;2022-12-24T12:11:43;100275.63;;;12.96;100.00
10881;BME280;5493;48.884;8.338;2022-12-24T12:14:19;100276.22;;;13.21;100.00
10881;BME280;5493;48.884;8.338;2022-12-24T12:16:50;100266.44;;;13.44;100.00
10881;BME280;5493;48.884;8.338;2022-12-24T12:19:34;100280.28;;;13.70;100.00
10881;BME280;5493;48.884;8.338;2022-12-24T12:22:06;100280.81;;;13.84;100.00
10881;BME280;5493;48.884;8.338;2022-12-24T12:24:42;100283.19;;;14.37;100.00
10881;BME280;5493;48.884;8.338;2022-12-24T12:27:29;100278.47;;;15.16;100.00
10881;BME280;5493;48.884;8.338;2022-12-24T12:30:00;100274.22;;;15.42;100.00
10881;BME280;5493;48.884;8.338;2022-12-24T12:32:39;100268.75;;;16.02;100.00
10881;BME280;5493;48.884;8.338;2022-12-24T12:35:17;100264.03;;;16.19;100.00
10881;BME280;5493;48.884;8.338;2022-12-24T12:37:52;100263.47;;;16.76;100.00
10881;BME280;5493;48.884;8.338;2022-12-24T12:40:23;100253.44;;;16.49;100.00
10881;BME280;5493;48.884;8.338;2022-12-24T12:43:04;100256.66;;;16.46;100.00
10881;BME280;5493;48.884;8.338;2022-12-24T12:45:38;100248.13;;;16.59;100.00
10881;BME280;5493;48.884;8.338;2022-12-24T12:48:30;100244.72;;;16.47;100.00
10881;BME280;5493;48.884;8.338;2022-12-24T12:51:06;100247.84;;;16.98;100.00
10881;BME280;5493;48.884;8.338;2022-12-24T12:53:44;100244.44;;;17.17;100.00
10881;BME280;5493;48.884;8.338;2022-12-24T12:56:22;100247.75;;;17.25;100.00
10881;BME280;5493;48.884;8.338;2022-12-24T12:58:54;100240.75;;;17.44;100.00
10881;BME280;5493;48.884;8.338;2022-12-24T13:01:26;100244.41;;;17.12;100.00
10881;BME280;5493;48.884;8.338;2022-12-24T13:04:29;100247.78;;;16.88;100.00
10881;BME280;5493;48.884;8.338;2022-12-24T13:07:21;100244.41;;;17.12;100.00
10881;BME280;5493;48.884;8.338;2022-12-24T13:10:08;100245.47;;;16.43;100.00